createdAt,value
2018-06-13T00:02:25.240Z,96106.44
2018-06-13T00:04:54.324Z,96104.78
2018-06-13T00:07:25.410Z,96101.41
2018-06-13T00:09:54.875Z,96102.27
2018-06-13T00:12:23.983Z,96101.00
2018-06-13T00:14:53.059Z,96101.41
2018-06-13T00:17:22.265Z,96096.39
2018-06-13T00:19:51.479Z,96090.89
2018-06-13T00:22:20.687Z,96092.98
2018-06-13T00:24:49.875Z,96090.00
2018-06-13T00:27:19.049Z,96088.19
2018-06-13T00:29:48.151Z,96081.40
2018-06-13T00:32:28.519Z,96086.20
2018-06-13T00:34:57.659Z,96081.92
2018-06-13T00:37:31.590Z,96080.27
2018-06-13T00:40:06.663Z,96079.41
2018-06-13T00:42:35.815Z,96075.16
2018-06-13T00:45:09.453Z,96068.75
2018-06-13T00:47:38.663Z,96061.55
2018-06-13T00:50:07.806Z,96058.92
2018-06-13T00:52:37.080Z,96058.98
2018-06-13T00:55:06.445Z,96059.87
2018-06-13T00:57:35.786Z,96062.44
2018-06-13T01:00:07.032Z,96060.78
2018-06-13T01:02:36.203Z,96057.48
2018-06-13T01:05:05.710Z,96060.94
2018-06-13T01:07:34.898Z,96060.45
2018-06-13T01:10:04.071Z,96057.42
2018-06-13T01:12:33.334Z,96060.84
2018-06-13T01:15:02.521Z,96055.81
2018-06-13T01:17:31.769Z,96055.34
2018-06-13T01:20:00.829Z,96049.80
2018-06-13T01:22:29.977Z,96049.41
2018-06-13T01:24:59.067Z,96049.89
2018-06-13T01:27:28.233Z,96044.45
2018-06-13T01:29:57.538Z,96040.70
2018-06-13T01:32:26.735Z,96038.89
2018-06-13T01:34:56.068Z,96042.30
2018-06-13T01:37:25.261Z,96043.97
2018-06-13T01:39:54.416Z,96049.89
2018-06-13T01:44:58.561Z,96051.59
2018-06-13T01:47:27.635Z,96057.99
2018-06-13T01:49:56.886Z,96050.69
2018-06-13T01:52:26.041Z,96052.87
2018-06-13T01:54:57.431Z,96047.23
2018-06-13T01:57:32.127Z,96044.20
2018-06-13T02:00:01.387Z,96042.91
2018-06-13T02:02:30.530Z,96043.71
2018-06-13T02:04:59.759Z,96038.54
2018-06-13T02:07:28.963Z,96036.83
2018-06-13T02:09:58.245Z,96039.82
2018-06-13T02:12:30.603Z,96034.27
2018-06-13T02:14:59.833Z,96031.66
2018-06-13T02:17:28.967Z,96032.50
2018-06-13T02:19:58.109Z,96032.60
2018-06-13T02:22:27.245Z,96031.32
2018-06-13T02:24:59.411Z,96029.45
2018-06-13T02:27:28.677Z,96025.20
2018-06-13T02:29:57.823Z,96026.58
2018-06-13T02:32:27.469Z,96028.24
2018-06-13T02:34:56.905Z,96025.62
2018-06-13T02:37:29.171Z,96026.48
2018-06-13T02:40:06.866Z,96030.73
2018-06-13T02:42:36.038Z,96031.07
2018-06-13T02:45:05.191Z,96034.00
2018-06-13T02:47:34.355Z,96032.34
2018-06-13T02:50:03.676Z,96036.61
2018-06-13T02:52:32.787Z,96029.67
2018-06-13T02:55:02.156Z,96030.47
2018-06-13T02:57:37.764Z,96035.59
2018-06-13T03:00:06.980Z,96032.03
2018-06-13T03:02:36.876Z,96029.58
2018-06-13T03:05:06.020Z,96028.19
2018-06-13T03:07:35.225Z,96026.91
2018-06-13T03:10:04.704Z,96033.73
2018-06-13T03:12:34.090Z,96034.11
2018-06-13T03:15:03.201Z,96036.20
2018-06-13T03:17:32.357Z,96039.72
2018-06-13T03:20:01.443Z,96035.02
2018-06-13T03:22:30.542Z,96038.75
2018-06-13T03:24:59.699Z,96034.75
2018-06-13T03:27:28.908Z,96035.66
2018-06-13T03:29:59.083Z,96040.02
2018-06-13T03:32:29.111Z,96040.98
2018-06-13T03:34:59.238Z,96041.95
2018-06-13T03:37:29.143Z,96043.81
2018-06-13T03:39:59.232Z,96043.27
2018-06-13T03:42:29.630Z,96049.92
2018-06-13T03:45:00.015Z,96053.02
2018-06-13T03:47:29.310Z,96049.70
2018-06-13T03:49:59.423Z,96048.09
2018-06-13T03:52:29.839Z,96048.09
2018-06-13T03:54:59.395Z,96050.71
2018-06-13T03:57:29.362Z,96054.59
2018-06-13T04:00:00.406Z,96056.31
2018-06-13T04:02:29.522Z,96060.16
2018-06-13T04:04:59.516Z,96060.48
2018-06-13T04:07:30.082Z,96065.70
2018-06-13T04:09:59.504Z,96064.14
2018-06-13T04:12:29.717Z,96066.97
2018-06-13T04:14:59.605Z,96070.43
2018-06-13T04:17:35.281Z,96073.13
2018-06-13T04:20:04.618Z,96068.23
2018-06-13T04:22:33.846Z,96070.84
2018-06-13T04:25:03.015Z,96074.21
2018-06-13T04:27:32.188Z,96071.07
2018-06-13T04:30:01.397Z,96065.09
2018-06-13T04:32:30.548Z,96075.37
2018-06-13T04:35:00.262Z,96074.56
2018-06-13T04:37:29.322Z,96073.03
2018-06-13T04:39:58.435Z,96075.59
2018-06-13T04:42:27.760Z,96074.82
2018-06-13T04:44:56.948Z,96078.57
2018-06-13T04:47:29.423Z,96077.20
2018-06-13T04:49:58.941Z,96080.58
2018-06-13T04:52:31.906Z,96081.00
2018-06-13T04:55:01.044Z,96072.77
2018-06-13T04:57:30.300Z,96078.57
2018-06-13T05:00:00.159Z,96079.05
2018-06-13T05:05:07.262Z,96083.34
2018-06-13T05:07:37.312Z,96086.67
2018-06-13T05:10:07.071Z,96083.00
2018-06-13T05:12:36.171Z,96081.69
2018-06-13T05:15:06.234Z,96092.64
2018-06-13T05:17:35.457Z,96090.16
2018-06-13T05:20:17.035Z,96089.35
2018-06-13T05:22:46.107Z,96091.91
2018-06-13T05:25:15.459Z,96098.69
2018-06-13T05:27:44.538Z,96100.39
2018-06-13T05:30:13.656Z,96098.81
2018-06-13T05:32:42.942Z,96102.39
2018-06-13T05:35:12.048Z,96103.67
2018-06-13T05:37:41.258Z,96108.74
2018-06-13T05:40:10.432Z,96115.05
2018-06-13T05:42:40.826Z,96120.16
2018-06-13T05:45:10.010Z,96121.91
2018-06-13T05:47:39.107Z,96123.94
2018-06-13T05:50:08.208Z,96128.16
2018-06-13T05:52:37.364Z,96127.38
2018-06-13T05:55:12.784Z,96125.77
2018-06-13T05:57:42.340Z,96134.09
2018-06-13T06:00:16.607Z,96128.66
2018-06-13T06:02:45.823Z,96134.16
2018-06-13T06:05:15.034Z,96137.73
2018-06-13T06:07:44.136Z,96138.11
2018-06-13T06:10:17.007Z,96140.98
2018-06-13T06:12:46.166Z,96138.09
2018-06-13T06:15:15.219Z,96146.13
2018-06-13T06:17:56.353Z,96154.70
2018-06-13T06:20:26.134Z,96150.55
2018-06-13T06:22:55.272Z,96153.92
2018-06-13T06:25:24.380Z,96155.70
2018-06-13T06:27:53.549Z,96156.66
2018-06-13T06:30:22.754Z,96162.70
2018-06-13T06:32:51.981Z,96162.74
2018-06-13T06:35:21.126Z,96163.52
2018-06-13T06:37:50.300Z,96159.80
2018-06-13T06:40:19.453Z,96169.02
2018-06-13T06:42:48.707Z,96167.81
2018-06-13T06:45:17.846Z,96179.03
2018-06-13T06:47:47.024Z,96174.85
2018-06-13T06:50:16.143Z,96179.11
2018-06-13T06:52:45.311Z,96183.72
2018-06-13T06:55:19.680Z,96197.38
2018-06-13T06:57:48.703Z,96192.80
2018-06-13T07:00:19.205Z,96197.20
2018-06-13T07:02:48.369Z,96193.87
2018-06-13T07:05:18.779Z,96192.23
2018-06-13T07:07:48.027Z,96189.85
2018-06-13T07:10:17.175Z,96200.81
2018-06-13T07:12:46.315Z,96199.54
2018-06-13T07:15:15.455Z,96203.02
2018-06-13T07:17:44.591Z,96209.27
2018-06-13T07:20:13.741Z,96210.40
2018-06-13T07:22:42.896Z,96208.70
2018-06-13T07:25:13.354Z,96212.59
2018-06-13T07:27:42.781Z,96208.05
2018-06-13T07:30:11.934Z,96206.38
2018-06-13T07:32:45.655Z,96218.86
2018-06-13T07:35:14.779Z,96219.52
2018-06-13T07:37:43.943Z,96220.00
2018-06-13T07:40:13.056Z,96224.30
2018-06-13T07:42:42.201Z,96228.84
2018-06-13T07:45:11.465Z,96229.01
2018-06-13T07:47:40.603Z,96231.10
2018-06-13T07:50:13.716Z,96234.87
2018-06-13T07:52:42.897Z,96231.53
2018-06-13T07:55:12.119Z,96227.70
2018-06-13T07:57:41.292Z,96236.97
2018-06-13T08:00:14.195Z,96238.66
2018-06-13T08:02:43.483Z,96239.02
2018-06-13T08:05:31.290Z,96243.90
2018-06-13T08:08:00.488Z,96236.88
2018-06-13T08:10:30.841Z,96241.34
2018-06-13T08:12:59.911Z,96247.30
2018-06-13T08:15:29.055Z,96253.20
2018-06-13T08:17:58.161Z,96245.00
2018-06-13T08:20:27.297Z,96244.65
2018-06-13T08:22:56.510Z,96246.78
2018-06-13T08:25:26.023Z,96247.20
2018-06-13T08:27:56.050Z,96253.55
2018-06-13T08:30:25.997Z,96253.63
2018-06-13T08:32:56.186Z,96255.22
2018-06-13T08:35:26.122Z,96263.92
2018-06-13T08:37:56.423Z,96263.81
2018-06-13T08:40:26.201Z,96263.70
2018-06-13T08:42:56.407Z,96254.93
2018-06-13T08:45:26.292Z,96266.72
2018-06-13T08:47:56.415Z,96270.48
2018-06-13T08:50:26.279Z,96276.94
2018-06-13T08:52:56.268Z,96276.23
2018-06-13T08:55:26.264Z,96277.59
2018-06-13T08:57:56.398Z,96289.16
2018-06-13T09:00:29.845Z,96294.45
2018-06-13T09:02:59.974Z,96287.45
2018-06-13T09:05:29.244Z,96291.05
2018-06-13T09:08:00.125Z,96296.62
2018-06-13T09:10:29.275Z,96307.27
2018-06-13T09:12:58.457Z,96301.27
2018-06-13T09:15:27.608Z,96298.72
2018-06-13T09:17:56.762Z,96306.34
2018-06-13T09:20:26.603Z,96298.11
2018-06-13T09:23:05.400Z,96296.87
2018-06-13T09:25:34.761Z,96305.34
2018-06-13T09:28:03.885Z,96301.02
2018-06-13T09:30:33.114Z,96307.16
2018-06-13T09:33:02.375Z,96303.61
2018-06-13T09:35:31.636Z,96305.00
2018-06-13T09:38:05.770Z,96316.39
2018-06-13T09:40:35.046Z,96304.50
2018-06-13T09:43:04.157Z,96314.55
2018-06-13T09:45:33.296Z,96323.03
2018-06-13T09:48:02.388Z,96323.89
2018-06-13T09:50:31.596Z,96321.33
2018-06-13T09:53:15.481Z,96323.89
2018-06-13T09:55:45.537Z,96327.27
2018-06-13T09:58:14.614Z,96326.27
2018-06-13T10:00:49.144Z,96326.69
2018-06-13T10:03:19.034Z,96334.94
2018-06-13T10:05:48.184Z,96332.38
2018-06-13T10:08:18.840Z,96335.29
2018-06-13T10:10:47.975Z,96333.83
2018-06-13T10:13:17.238Z,96330.66
2018-06-13T10:15:48.433Z,96335.64
2018-06-13T10:18:17.685Z,96338.38
2018-06-13T10:20:46.848Z,96342.42
2018-06-13T10:23:15.985Z,96346.66
2018-06-13T10:25:45.158Z,96345.91
2018-06-13T10:28:22.370Z,96343.24
2018-06-13T10:30:51.472Z,96346.66
2018-06-13T10:33:20.592Z,96355.17
2018-06-13T10:35:49.717Z,96360.50
2018-06-13T10:38:25.286Z,96363.34
2018-06-13T10:40:56.276Z,96365.69
2018-06-13T10:43:25.501Z,96367.35
2018-06-13T10:45:54.694Z,96365.52
2018-06-13T10:48:23.949Z,96364.45
2018-06-13T10:51:01.389Z,96363.98
2018-06-13T10:53:30.600Z,96366.90
2018-06-13T10:55:59.891Z,96364.09
2018-06-13T10:58:29.136Z,96368.78
2018-06-13T11:00:58.406Z,96372.32
2018-06-13T11:03:27.644Z,96373.13
2018-06-13T11:05:57.384Z,96375.23
2018-06-13T11:08:27.601Z,96378.52
2018-06-13T11:10:57.612Z,96369.38
2018-06-13T11:13:33.185Z,96377.80
2018-06-13T11:16:02.476Z,96374.50
2018-06-13T11:18:31.716Z,96378.41
2018-06-13T11:21:00.884Z,96384.45
2018-06-13T11:23:30.163Z,96377.52
2018-06-13T11:25:59.249Z,96386.97
2018-06-13T11:28:28.452Z,96388.25
2018-06-13T11:30:57.682Z,96394.57
2018-06-13T11:33:27.669Z,96388.22
2018-06-13T11:36:03.286Z,96391.52
2018-06-13T11:38:32.408Z,96396.45
2018-06-13T11:41:01.637Z,96396.03
2018-06-13T11:43:30.828Z,96405.13
2018-06-13T11:46:13.828Z,96402.35
2018-06-13T11:48:43.055Z,96409.98
2018-06-13T11:51:12.306Z,96411.23
2018-06-13T11:53:41.472Z,96407.82
2018-06-13T11:56:12.584Z,96408.50
2018-06-13T11:58:41.893Z,96415.32
2018-06-13T12:01:11.098Z,96413.58
2018-06-13T12:03:40.320Z,96414.37
2018-06-13T12:06:09.538Z,96414.19
2018-06-13T12:08:39.758Z,96418.59
2018-06-13T12:11:18.723Z,96418.86
2018-06-13T12:13:47.961Z,96421.45
2018-06-13T12:16:17.217Z,96423.20
2018-06-13T12:18:46.441Z,96416.56
2018-06-13T12:21:15.572Z,96421.75
2018-06-13T12:23:44.748Z,96430.84
2018-06-13T12:26:13.924Z,96422.12
2018-06-13T12:28:43.717Z,96427.02
2018-06-13T12:31:13.660Z,96427.44
2018-06-13T12:33:42.831Z,96425.73
2018-06-13T12:36:12.138Z,96428.73
2018-06-13T12:38:42.214Z,96429.58
2018-06-13T12:41:11.393Z,96433.84
2018-06-13T12:43:43.657Z,96434.00
2018-06-13T12:46:12.797Z,96435.58
2018-06-13T12:48:41.931Z,96438.59
2018-06-13T12:51:11.147Z,96441.69
2018-06-13T12:53:40.440Z,96442.86
2018-06-13T12:56:09.536Z,96443.22
2018-06-13T12:58:38.713Z,96448.19
2018-06-13T13:01:07.940Z,96445.87
2018-06-13T13:03:37.187Z,96448.31
2018-06-13T13:06:12.612Z,96445.17
2018-06-13T13:08:41.713Z,96448.35
2018-06-13T13:11:10.951Z,96448.78
2018-06-13T13:13:40.067Z,96445.71
2018-06-13T13:16:10.912Z,96448.12
2018-06-13T13:18:40.124Z,96451.30
2018-06-13T13:21:09.710Z,96452.84
2018-06-13T13:23:38.902Z,96453.86
2018-06-13T13:26:08.123Z,96460.30
2018-06-13T13:28:37.288Z,96461.47
2018-06-13T13:31:06.443Z,96460.66
2018-06-13T13:33:35.577Z,96458.52
2018-06-13T13:36:07.152Z,96456.19
2018-06-13T13:38:37.547Z,96458.70
2018-06-13T13:41:11.248Z,96470.51
2018-06-13T13:43:40.491Z,96464.23
2018-06-13T13:46:09.814Z,96465.92
2018-06-13T13:48:39.088Z,96468.53
2018-06-13T13:51:08.672Z,96464.95
2018-06-13T13:53:37.893Z,96468.91
2018-06-13T13:56:07.101Z,96470.62
2018-06-13T13:58:36.229Z,96476.48
2018-06-13T14:01:05.389Z,96474.62
2018-06-13T14:03:34.587Z,96475.39
2018-06-13T14:06:03.732Z,96476.52
2018-06-13T14:08:32.906Z,96480.36
2018-06-13T14:11:02.021Z,96484.20
2018-06-13T14:13:31.281Z,96480.89
2018-06-13T14:16:00.489Z,96495.37
2018-06-13T14:18:29.749Z,96487.69
2018-06-13T14:20:59.225Z,96488.00
2018-06-13T14:23:29.279Z,96491.69
2018-06-13T14:25:59.257Z,96491.58
2018-06-13T14:28:31.407Z,96494.10
2018-06-13T14:31:00.812Z,96501.78
2018-06-13T14:33:30.008Z,96497.44
2018-06-13T14:35:59.283Z,96505.55
2018-06-13T14:38:29.376Z,96510.28
2018-06-13T14:40:59.401Z,96511.99
2018-06-13T14:43:29.374Z,96516.19
2018-06-13T14:45:59.413Z,96515.41
2018-06-13T14:48:29.600Z,96518.01
2018-06-13T14:50:59.401Z,96521.49
2018-06-13T14:53:29.716Z,96519.83
2018-06-13T14:56:04.728Z,96520.82
2018-06-13T14:58:33.993Z,96526.83
2018-06-13T15:01:03.145Z,96524.27
2018-06-13T15:03:32.401Z,96520.04
2018-06-13T15:06:01.576Z,96526.45
2018-06-13T15:08:30.753Z,96529.05
2018-06-13T15:11:00.035Z,96528.76
2018-06-13T15:13:29.790Z,96527.33
2018-06-13T15:16:00.075Z,96536.74
2018-06-13T15:18:29.772Z,96534.34
2018-06-13T15:20:59.770Z,96533.13
2018-06-13T15:23:29.885Z,96538.64
2018-06-13T15:26:00.032Z,96543.70
2018-06-13T15:28:36.633Z,96545.34
2018-06-13T15:31:07.010Z,96551.44
2018-06-13T15:33:36.411Z,96545.60
2018-06-13T15:36:05.604Z,96553.77
2018-06-13T15:38:34.841Z,96549.05
2018-06-13T15:41:04.157Z,96555.87
2018-06-13T15:43:33.375Z,96557.60
2018-06-13T15:46:02.537Z,96560.16
2018-06-13T15:48:31.776Z,96561.77
2018-06-13T15:51:02.493Z,96560.19
2018-06-13T15:53:39.593Z,96561.02
2018-06-13T15:56:08.743Z,96565.73
2018-06-13T15:58:43.487Z,96573.88
2018-06-13T16:01:12.691Z,96570.48
2018-06-13T16:03:41.809Z,96569.79
2018-06-13T16:06:10.955Z,96580.84
2018-06-13T16:08:40.381Z,96582.61
2018-06-13T16:11:09.533Z,96586.91
2018-06-13T16:13:38.762Z,96592.08
2018-06-13T16:16:08.185Z,96591.65
2018-06-13T16:18:37.427Z,96604.92
2018-06-13T16:21:06.605Z,96598.09
2018-06-13T16:23:35.716Z,96598.12
2018-06-13T16:26:04.912Z,96597.33
2018-06-13T16:28:34.204Z,96606.73
2018-06-13T16:31:03.418Z,96605.12
2018-06-13T16:33:32.602Z,96605.91
2018-06-13T16:36:01.812Z,96606.80
2018-06-13T16:38:30.908Z,96607.67
2018-06-13T16:41:00.499Z,96612.86
2018-06-13T16:43:30.628Z,96612.09
2018-06-13T16:46:00.636Z,96614.57
2018-06-13T16:48:30.647Z,96625.22
2018-06-13T16:51:13.256Z,96628.20
2018-06-13T16:53:57.284Z,96633.77
2018-06-13T16:56:29.618Z,96637.23
2018-06-13T16:58:58.725Z,96638.94
2018-06-13T17:01:27.920Z,96640.61
2018-06-13T17:03:57.125Z,96645.35
2018-06-13T17:06:26.249Z,96641.57
2018-06-13T17:08:55.479Z,96654.73
2018-06-13T17:11:25.306Z,96652.17
2018-06-13T17:13:55.590Z,96653.02
2018-06-13T17:16:24.777Z,96658.19
2018-06-13T17:18:54.317Z,96659.91
2018-06-13T17:21:23.498Z,96669.31
2018-06-13T17:23:52.711Z,96675.28
2018-06-13T17:26:22.389Z,96677.87
2018-06-13T17:28:51.508Z,96681.28
2018-06-13T17:31:23.058Z,96679.60
2018-06-13T17:33:52.356Z,96691.50
2018-06-13T17:38:55.237Z,96687.30
2018-06-13T17:41:24.302Z,96697.04
2018-06-13T17:43:53.451Z,96701.73
2018-06-13T17:46:24.639Z,96707.67
2018-06-13T17:48:53.978Z,96700.87
2018-06-13T17:51:24.088Z,96704.33
2018-06-13T17:53:54.663Z,96710.77
2018-06-13T17:56:27.945Z,96710.40
2018-06-13T17:58:57.155Z,96719.83
2018-06-13T18:01:26.416Z,96723.31
2018-06-13T18:03:55.599Z,96723.31
2018-06-13T18:06:24.661Z,96727.16
2018-06-13T18:08:53.944Z,96719.92
2018-06-13T18:11:23.130Z,96729.27
2018-06-13T18:13:52.245Z,96727.59
2018-06-13T18:16:21.473Z,96727.98
2018-06-13T18:18:50.633Z,96726.71
2018-06-13T18:21:23.573Z,96730.98
2018-06-13T18:23:52.730Z,96736.10
2018-06-13T18:26:21.878Z,96733.98
2018-06-13T18:28:50.968Z,96736.55
2018-06-13T18:31:21.069Z,96741.20
2018-06-13T18:33:50.230Z,96748.92
2018-06-13T18:36:19.464Z,96756.54
2018-06-13T18:38:49.625Z,96760.41
2018-06-13T18:41:18.856Z,96761.69
2018-06-13T18:43:48.158Z,96766.83
2018-06-13T18:46:19.118Z,96761.69
2018-06-13T18:48:48.285Z,96768.48
2018-06-13T18:51:17.659Z,96764.20
2018-06-13T18:53:46.859Z,96760.86
2018-06-13T18:56:16.107Z,96760.47
2018-06-13T18:58:45.305Z,96766.86
2018-06-13T19:01:20.953Z,96771.96
2018-06-13T19:03:50.460Z,96782.19
2018-06-13T19:06:19.570Z,96781.34
2018-06-13T19:08:48.846Z,96788.12
2018-06-13T19:11:21.330Z,96784.73
2018-06-13T19:13:51.953Z,96787.29
2018-06-13T19:16:21.130Z,96785.61
2018-06-13T19:18:51.268Z,96792.00
2018-06-13T19:21:20.853Z,96788.56
2018-06-13T19:23:50.092Z,96789.84
2018-06-13T19:26:19.371Z,96792.40
2018-06-13T19:28:48.718Z,96791.56
2018-06-13T19:31:17.897Z,96796.67
2018-06-13T19:33:47.030Z,96798.42
2018-06-13T19:36:17.325Z,96798.42
2018-06-13T19:38:46.524Z,96806.94
2018-06-13T19:41:16.309Z,96818.02
2018-06-13T19:43:46.569Z,96820.58
2018-06-13T19:46:19.153Z,96829.96
2018-06-13T19:48:51.719Z,96842.73
2018-06-13T19:51:21.152Z,96835.11
2018-06-13T19:53:55.429Z,96840.22
2018-06-13T19:56:29.938Z,96841.08
2018-06-13T19:58:59.146Z,96836.34
2018-06-13T20:01:28.378Z,96842.73
2018-06-13T20:04:03.041Z,96845.29
2018-06-13T20:06:32.379Z,96846.16
2018-06-13T20:09:01.560Z,96844.02
2018-06-13T20:11:30.801Z,96846.16
2018-06-13T20:14:05.315Z,96845.34
2018-06-13T20:16:51.913Z,96844.92
2018-06-13T20:19:26.320Z,96857.33
2018-06-13T20:21:57.637Z,96849.69
2018-06-13T20:24:26.827Z,96851.38
2018-06-13T20:27:01.218Z,96865.42
2018-06-13T20:29:35.778Z,96875.23
2018-06-13T20:32:05.013Z,96876.92
2018-06-13T20:34:34.743Z,96872.69
2018-06-13T20:37:03.953Z,96873.56
2018-06-13T20:39:33.213Z,96876.11
2018-06-13T20:42:02.409Z,96879.54
2018-06-13T20:44:37.100Z,96880.41
2018-06-13T20:47:07.157Z,96877.41
2018-06-13T20:49:38.066Z,96883.80
2018-06-13T20:52:07.288Z,96877.45
2018-06-13T20:54:42.643Z,96882.11
2018-06-13T20:57:15.784Z,96885.55
2018-06-13T20:59:48.552Z,96891.09
2018-06-13T21:02:17.735Z,96892.77
2018-06-13T21:04:46.974Z,96898.31
2018-06-13T21:07:16.077Z,96894.91
2018-06-13T21:09:45.216Z,96899.16
2018-06-13T21:12:14.641Z,96902.11
2018-06-13T21:14:43.790Z,96900.00
2018-06-13T21:17:12.938Z,96899.09
2018-06-13T21:19:42.016Z,96904.20
2018-06-13T21:22:11.155Z,96899.94
2018-06-13T21:24:41.561Z,96898.66
2018-06-13T21:27:10.716Z,96905.07
2018-06-13T21:29:43.225Z,96905.10
2018-06-13T21:32:12.388Z,96903.39
2018-06-13T21:34:41.630Z,96908.49
2018-06-13T21:37:10.803Z,96911.03
2018-06-13T21:39:39.941Z,96902.55
2018-06-13T21:42:09.178Z,96903.82
2018-06-13T21:44:38.355Z,96913.60
2018-06-13T21:47:09.866Z,96911.48
2018-06-13T21:49:39.128Z,96901.27
2018-06-13T21:52:08.400Z,96912.79
2018-06-13T21:54:37.903Z,96909.42
2018-06-13T21:57:07.814Z,96903.88
2018-06-13T21:59:37.821Z,96912.81
2018-06-13T22:02:08.043Z,96906.84
2018-06-13T22:04:39.479Z,96908.98
2018-06-13T22:07:09.112Z,96902.58
2018-06-13T22:09:39.310Z,96909.38
2018-06-13T22:12:08.503Z,96906.00
2018-06-13T22:14:38.304Z,96908.58
2018-06-13T22:17:13.599Z,96907.70
2018-06-13T22:19:42.813Z,96911.97
2018-06-13T22:22:12.667Z,96919.64
2018-06-13T22:24:41.794Z,96918.81
2018-06-13T22:27:12.248Z,96916.70
2018-06-13T22:29:41.395Z,96912.00
2018-06-13T22:32:14.204Z,96917.97
2018-06-13T22:34:43.444Z,96918.00
2018-06-13T22:37:12.732Z,96913.77
2018-06-13T22:39:41.913Z,96906.95
2018-06-13T22:42:11.090Z,96905.27
2018-06-13T22:44:40.262Z,96909.50
2018-06-13T22:47:16.142Z,96912.89
2018-06-13T22:49:45.357Z,96917.98
2018-06-13T22:52:14.540Z,96920.14
2018-06-13T22:54:43.847Z,96923.95
2018-06-13T22:57:13.060Z,96922.26
2018-06-13T22:59:42.275Z,96925.67
2018-06-13T23:02:11.439Z,96922.26
2018-06-13T23:04:40.646Z,96916.31
2018-06-13T23:07:09.845Z,96918.00
2018-06-13T23:09:39.001Z,96925.66
2018-06-13T23:12:15.719Z,96922.67
2018-06-13T23:14:44.921Z,96919.26
2018-06-13T23:17:14.105Z,96922.23
2018-06-13T23:19:43.328Z,96920.95
2018-06-13T23:22:12.572Z,96920.56
2018-06-13T23:24:45.283Z,96926.52
2018-06-13T23:27:16.284Z,96925.67
2018-06-13T23:29:45.532Z,96929.07
2018-06-13T23:32:15.086Z,96928.23
2018-06-13T23:34:44.238Z,96926.09
2018-06-13T23:37:15.545Z,96925.68
2018-06-13T23:39:44.713Z,96923.13
2018-06-13T23:42:13.914Z,96930.78
2018-06-13T23:44:43.071Z,96929.09
2018-06-13T23:47:16.835Z,96925.27
2018-06-13T23:49:46.043Z,96929.94
2018-06-13T23:52:15.310Z,96927.39
2018-06-13T23:54:44.566Z,96930.36
2018-06-13T23:57:13.840Z,96936.75
2018-06-13T23:59:43.014Z,96935.50
